sensor_id;sensor_type;location;lat;lon;timestamp;pressure;altitude;pressure_sealevel;temperature;humidity
70370;BME280;57790;51.356;-2.906;2023-07-20T00:01:23;101892.53;;;19.82;100.00
70370;BME280;57790;51.356;-2.906;2023-07-20T00:04:24;101890.69;;;19.82;100.00
70370;BME280;57790;51.356;-2.906;2023-07-20T00:07:25;101881.31;;;19.78;100.00
70370;BME280;57790;51.356;-2.906;2023-07-20T00:10:25;101887.53;;;19.79;100.00
70370;BME280;57790;51.356;-2.906;2023-07-20T00:13:26;101890.81;;;19.74;100.00
70370;BME280;57790;51.356;-2.906;2023-07-20T00:16:26;101889.53;;;19.70;100.00
70370;BME280;57790;51.356;-2.906;2023-07-20T00:19:27;101886.16;;;19.61;100.00
70370;BME280;57790;51.356;-2.906;2023-07-20T00:22:28;101882.38;;;19.56;100.00
70370;BME280;57790;51.356;-2.906;2023-07-20T00:25:28;101881.88;;;19.52;100.00
70370;BME280;57790;51.356;-2.906;2023-07-20T00:28:29;101882.28;;;19.49;100.00
70370;BME280;57790;51.356;-2.906;2023-07-20T00:31:29;101889.91;;;19.46;100.00
70370;BME280;57790;51.356;-2.906;2023-07-20T00:34:30;101879.25;;;19.38;100.00
70370;BME280;57790;51.356;-2.906;2023-07-20T00:37:31;101880.09;;;19.38;100.00
70370;BME280;57790;51.356;-2.906;2023-07-20T00:40:38;101878.81;;;19.34;100.00
70370;BME280;57790;51.356;-2.906;2023-07-20T00:43:38;101882.75;;;19.31;100.00
70370;BME280;57790;51.356;-2.906;2023-07-20T00:46:39;101881.47;;;19.27;100.00
70370;BME280;57790;51.356;-2.906;2023-07-20T00:49:41;101882.00;;;19.23;100.00
70370;BME280;57790;51.356;-2.906;2023-07-20T00:52:43;101877.47;;;19.23;100.00
70370;BME280;57790;51.356;-2.906;2023-07-20T00:55:43;101877.84;;;19.20;100.00
70370;BME280;57790;51.356;-2.906;2023-07-20T00:58:44;101867.94;;;19.21;100.00
70370;BME280;57790;51.356;-2.906;2023-07-20T01:01:45;101871.78;;;19.12;100.00
70370;BME280;57790;51.356;-2.906;2023-07-20T01:04:46;101871.16;;;19.10;100.00
70370;BME280;57790;51.356;-2.906;2023-07-20T01:07:57;101871.91;;;19.03;100.00
70370;BME280;57790;51.356;-2.906;2023-07-20T01:11:27;101869.59;;;19.00;100.00
70370;BME280;57790;51.356;-2.906;2023-07-20T01:14:31;101867.84;;;18.93;100.00
70370;BME280;57790;51.356;-2.906;2023-07-20T01:17:32;101862.84;;;18.90;100.00
70370;BME280;57790;51.356;-2.906;2023-07-20T01:20:33;101870.84;;;18.83;100.00
70370;BME280;57790;51.356;-2.906;2023-07-20T01:33:24;101865.84;;;18.65;100.00
70370;BME280;57790;51.356;-2.906;2023-07-20T01:36:29;101863.06;;;18.59;100.00
70370;BME280;57790;51.356;-2.906;2023-07-20T01:39:31;101858.09;;;18.56;100.00
70370;BME280;57790;51.356;-2.906;2023-07-20T01:42:33;101860.97;;;18.54;100.00
70370;BME280;57790;51.356;-2.906;2023-07-20T01:45:33;101861.50;;;18.50;100.00
70370;BME280;57790;51.356;-2.906;2023-07-20T01:48:34;101856.13;;;18.50;100.00
70370;BME280;57790;51.356;-2.906;2023-07-20T01:51:34;101857.53;;;18.46;100.00
70370;BME280;57790;51.356;-2.906;2023-07-20T01:54:35;101861.97;;;18.53;100.00
70370;BME280;57790;51.356;-2.906;2023-07-20T01:57:35;101856.97;;;18.50;100.00
70370;BME280;57790;51.356;-2.906;2023-07-20T02:00:39;101854.00;;;18.45;100.00
70370;BME280;57790;51.356;-2.906;2023-07-20T02:03:39;101844.94;;;18.31;100.00
70370;BME280;57790;51.356;-2.906;2023-07-20T02:06:39;101855.88;;;18.30;100.00
70370;BME280;57790;51.356;-2.906;2023-07-20T02:09:40;101851.25;;;18.24;100.00
70370;BME280;57790;51.356;-2.906;2023-07-20T02:12:40;101847.25;;;18.20;100.00
70370;BME280;57790;51.356;-2.906;2023-07-20T02:15:41;101843.75;;;18.19;100.00
70370;BME280;57790;51.356;-2.906;2023-07-20T02:18:42;101845.53;;;18.12;100.00
70370;BME280;57790;51.356;-2.906;2023-07-20T02:21:43;101846.16;;;18.14;100.00
70370;BME280;57790;51.356;-2.906;2023-07-20T02:24:43;101848.38;;;18.10;100.00
70370;BME280;57790;51.356;-2.906;2023-07-20T02:27:43;101849.22;;;18.11;100.00
70370;BME280;57790;51.356;-2.906;2023-07-20T02:30:44;101851.06;;;18.10;100.00
70370;BME280;57790;51.356;-2.906;2023-07-20T02:33:44;101842.44;;;18.00;100.00
70370;BME280;57790;51.356;-2.906;2023-07-20T02:36:45;101842.25;;;18.02;100.00
70370;BME280;57790;51.356;-2.906;2023-07-20T02:39:46;101852.72;;;17.97;100.00
70370;BME280;57790;51.356;-2.906;2023-07-20T02:42:47;101843.72;;;17.90;100.00
70370;BME280;57790;51.356;-2.906;2023-07-20T02:45:48;101848.63;;;17.86;100.00
70370;BME280;57790;51.356;-2.906;2023-07-20T02:48:48;101840.59;;;17.86;100.00
70370;BME280;57790;51.356;-2.906;2023-07-20T02:51:48;101843.00;;;17.81;100.00
70370;BME280;57790;51.356;-2.906;2023-07-20T02:54:49;101846.03;;;17.78;100.00
70370;BME280;57790;51.356;-2.906;2023-07-20T02:57:49;101841.22;;;17.73;100.00
70370;BME280;57790;51.356;-2.906;2023-07-20T03:00:50;101845.94;;;17.71;100.00
70370;BME280;57790;51.356;-2.906;2023-07-20T03:03:50;101847.28;;;17.67;100.00
70370;BME280;57790;51.356;-2.906;2023-07-20T03:06:51;101837.09;;;17.63;100.00
70370;BME280;57790;51.356;-2.906;2023-07-20T03:09:51;101833.09;;;17.59;100.00
70370;BME280;57790;51.356;-2.906;2023-07-20T03:12:52;101833.84;;;17.52;100.00
70370;BME280;57790;51.356;-2.906;2023-07-20T03:15:53;101826.31;;;17.48;100.00
70370;BME280;57790;51.356;-2.906;2023-07-20T03:18:53;101826.81;;;17.51;100.00
70370;BME280;57790;51.356;-2.906;2023-07-20T03:21:54;101831.50;;;17.49;100.00
70370;BME280;57790;51.356;-2.906;2023-07-20T03:24:54;101831.69;;;17.48;100.00
70370;BME280;57790;51.356;-2.906;2023-07-20T03:27:54;101837.59;;;17.43;100.00
70370;BME280;57790;51.356;-2.906;2023-07-20T03:30:58;101833.25;;;17.42;100.00
70370;BME280;57790;51.356;-2.906;2023-07-20T03:33:59;101836.47;;;17.38;100.00
70370;BME280;57790;51.356;-2.906;2023-07-20T03:36:59;101833.81;;;17.38;100.00
70370;BME280;57790;51.356;-2.906;2023-07-20T03:39:59;101830.44;;;17.36;100.00
70370;BME280;57790;51.356;-2.906;2023-07-20T03:43:00;101831.53;;;17.27;100.00
70370;BME280;57790;51.356;-2.906;2023-07-20T03:46:00;101829.22;;;17.23;100.00
70370;BME280;57790;51.356;-2.906;2023-07-20T03:49:01;101830.75;;;17.18;100.00
70370;BME280;57790;51.356;-2.906;2023-07-20T03:52:01;101834.81;;;17.14;100.00
70370;BME280;57790;51.356;-2.906;2023-07-20T03:55:05;101840.81;;;17.16;100.00
70370;BME280;57790;51.356;-2.906;2023-07-20T03:58:06;101835.53;;;17.08;100.00
70370;BME280;57790;51.356;-2.906;2023-07-20T04:01:07;101837.72;;;17.04;100.00
70370;BME280;57790;51.356;-2.906;2023-07-20T04:04:08;101835.22;;;17.03;100.00
70370;BME280;57790;51.356;-2.906;2023-07-20T04:07:08;101841.41;;;17.03;100.00
70370;BME280;57790;51.356;-2.906;2023-07-20T04:10:09;101841.13;;;16.98;100.00
70370;BME280;57790;51.356;-2.906;2023-07-20T04:13:10;101839.44;;;16.97;100.00
70370;BME280;57790;51.356;-2.906;2023-07-20T04:16:10;101834.47;;;16.94;100.00
70370;BME280;57790;51.356;-2.906;2023-07-20T04:19:10;101842.69;;;16.92;100.00
70370;BME280;57790;51.356;-2.906;2023-07-20T04:22:11;101831.81;;;16.86;100.00
70370;BME280;57790;51.356;-2.906;2023-07-20T04:25:11;101830.16;;;16.85;100.00
70370;BME280;57790;51.356;-2.906;2023-07-20T04:28:12;101836.88;;;16.81;100.00
70370;BME280;57790;51.356;-2.906;2023-07-20T04:31:14;101830.03;;;16.78;100.00
70370;BME280;57790;51.356;-2.906;2023-07-20T04:34:14;101836.91;;;16.73;100.00
70370;BME280;57790;51.356;-2.906;2023-07-20T04:37:15;101833.22;;;16.74;100.00
70370;BME280;57790;51.356;-2.906;2023-07-20T04:40:15;101836.72;;;16.74;100.00
70370;BME280;57790;51.356;-2.906;2023-07-20T04:43:16;101837.75;;;16.73;100.00
70370;BME280;57790;51.356;-2.906;2023-07-20T04:46:17;101836.94;;;16.64;100.00
70370;BME280;57790;51.356;-2.906;2023-07-20T04:49:19;101837.09;;;16.63;100.00
70370;BME280;57790;51.356;-2.906;2023-07-20T04:52:19;101832.75;;;16.62;100.00
70370;BME280;57790;51.356;-2.906;2023-07-20T04:55:19;101826.56;;;16.61;100.00
70370;BME280;57790;51.356;-2.906;2023-07-20T04:58:21;101829.06;;;16.63;100.00
70370;BME280;57790;51.356;-2.906;2023-07-20T05:01:23;101833.56;;;16.62;100.00
70370;BME280;57790;51.356;-2.906;2023-07-20T05:04:23;101824.38;;;16.65;100.00
70370;BME280;57790;51.356;-2.906;2023-07-20T05:07:24;101831.41;;;16.66;100.00
70370;BME280;57790;51.356;-2.906;2023-07-20T05:10:24;101831.06;;;16.69;100.00
70370;BME280;57790;51.356;-2.906;2023-07-20T05:13:24;101839.75;;;16.71;100.00
70370;BME280;57790;51.356;-2.906;2023-07-20T05:16:25;101837.28;;;16.70;100.00
70370;BME280;57790;51.356;-2.906;2023-07-20T05:19:25;101837.59;;;16.66;100.00
70370;BME280;57790;51.356;-2.906;2023-07-20T05:22:26;101833.94;;;16.68;100.00
70370;BME280;57790;51.356;-2.906;2023-07-20T05:25:26;101838.94;;;16.71;100.00
70370;BME280;57790;51.356;-2.906;2023-07-20T05:28:27;101837.44;;;16.68;100.00
70370;BME280;57790;51.356;-2.906;2023-07-20T05:31:27;101830.75;;;16.64;100.00
70370;BME280;57790;51.356;-2.906;2023-07-20T05:34:30;101828.91;;;16.64;100.00
70370;BME280;57790;51.356;-2.906;2023-07-20T05:37:31;101830.41;;;16.59;100.00
70370;BME280;57790;51.356;-2.906;2023-07-20T05:40:32;101833.09;;;16.59;100.00
70370;BME280;57790;51.356;-2.906;2023-07-20T05:43:32;101837.16;;;16.55;100.00
70370;BME280;57790;51.356;-2.906;2023-07-20T05:46:32;101834.47;;;16.55;100.00
70370;BME280;57790;51.356;-2.906;2023-07-20T05:49:34;101837.16;;;16.55;100.00
70370;BME280;57790;51.356;-2.906;2023-07-20T05:52:34;101830.97;;;16.54;100.00
70370;BME280;57790;51.356;-2.906;2023-07-20T05:55:35;101837.78;;;16.57;100.00
70370;BME280;57790;51.356;-2.906;2023-07-20T05:58:36;101838.63;;;16.57;100.00
70370;BME280;57790;51.356;-2.906;2023-07-20T06:01:37;101835.78;;;16.59;100.00
70370;BME280;57790;51.356;-2.906;2023-07-20T06:04:38;101836.97;;;16.56;100.00
70370;BME280;57790;51.356;-2.906;2023-07-20T06:07:39;101845.66;;;16.58;100.00
70370;BME280;57790;51.356;-2.906;2023-07-20T06:10:39;101831.72;;;16.63;100.00
70370;BME280;57790;51.356;-2.906;2023-07-20T06:13:40;101832.91;;;16.69;100.00
70370;BME280;57790;51.356;-2.906;2023-07-20T06:16:40;101839.75;;;16.71;100.00
70370;BME280;57790;51.356;-2.906;2023-07-20T06:19:40;101826.66;;;16.76;100.00
70370;BME280;57790;51.356;-2.906;2023-07-20T06:22:41;101835.88;;;16.82;100.00
70370;BME280;57790;51.356;-2.906;2023-07-20T06:25:41;101831.34;;;16.82;100.00
70370;BME280;57790;51.356;-2.906;2023-07-20T06:28:42;101832.28;;;16.89;100.00
70370;BME280;57790;51.356;-2.906;2023-07-20T06:31:42;101833.63;;;16.93;100.00
70370;BME280;57790;51.356;-2.906;2023-07-20T06:34:42;101833.84;;;17.07;100.00
70370;BME280;57790;51.356;-2.906;2023-07-20T06:37:43;101833.16;;;17.13;100.00
70370;BME280;57790;51.356;-2.906;2023-07-20T06:40:43;101827.72;;;17.21;100.00
70370;BME280;57790;51.356;-2.906;2023-07-20T06:43:44;101831.53;;;17.27;100.00
70370;BME280;57790;51.356;-2.906;2023-07-20T06:46:44;101832.66;;;17.32;100.00
70370;BME280;57790;51.356;-2.906;2023-07-20T06:49:44;101832.97;;;17.37;100.00
70370;BME280;57790;51.356;-2.906;2023-07-20T06:52:45;101827.88;;;17.42;100.00
70370;BME280;57790;51.356;-2.906;2023-07-20T06:55:48;101829.50;;;17.51;100.00
70370;BME280;57790;51.356;-2.906;2023-07-20T06:58:48;101826.63;;;17.53;100.00
70370;BME280;57790;51.356;-2.906;2023-07-20T07:01:48;101828.56;;;17.59;100.00
70370;BME280;57790;51.356;-2.906;2023-07-20T07:04:49;101829.03;;;17.63;100.00
70370;BME280;57790;51.356;-2.906;2023-07-20T07:07:49;101826.97;;;17.73;100.00
70370;BME280;57790;51.356;-2.906;2023-07-20T07:10:50;101828.75;;;17.80;100.00
70370;BME280;57790;51.356;-2.906;2023-07-20T07:13:50;101826.34;;;17.86;100.00
70370;BME280;57790;51.356;-2.906;2023-07-20T07:16:51;101826.44;;;17.92;100.00
70370;BME280;57790;51.356;-2.906;2023-07-20T07:19:52;101820.72;;;17.95;100.00
70370;BME280;57790;51.356;-2.906;2023-07-20T07:22:56;101824.31;;;18.02;100.00
70370;BME280;57790;51.356;-2.906;2023-07-20T07:25:57;101821.75;;;18.09;100.00
70370;BME280;57790;51.356;-2.906;2023-07-20T07:28:57;101830.63;;;18.09;100.00
70370;BME280;57790;51.356;-2.906;2023-07-20T07:31:58;101827.38;;;18.14;100.00
70370;BME280;57790;51.356;-2.906;2023-07-20T07:34:58;101820.06;;;18.23;100.00
70370;BME280;57790;51.356;-2.906;2023-07-20T07:38:00;101821.34;;;18.27;100.00
70370;BME280;57790;51.356;-2.906;2023-07-20T07:41:01;101821.88;;;18.37;100.00
70370;BME280;57790;51.356;-2.906;2023-07-20T07:44:01;101825.50;;;18.44;100.00
70370;BME280;57790;51.356;-2.906;2023-07-20T07:47:01;101818.72;;;18.48;100.00
70370;BME280;57790;51.356;-2.906;2023-07-20T07:50:02;101819.00;;;18.53;100.00
70370;BME280;57790;51.356;-2.906;2023-07-20T07:53:03;101810.75;;;18.55;100.00
70370;BME280;57790;51.356;-2.906;2023-07-20T07:56:06;101815.56;;;18.59;100.00
70370;BME280;57790;51.356;-2.906;2023-07-20T07:59:06;101814.53;;;18.60;100.00
70370;BME280;57790;51.356;-2.906;2023-07-20T08:02:07;101805.66;;;18.60;100.00
70370;BME280;57790;51.356;-2.906;2023-07-20T08:05:08;101805.19;;;18.56;100.00
70370;BME280;57790;51.356;-2.906;2023-07-20T08:08:08;101819.66;;;18.55;100.00
70370;BME280;57790;51.356;-2.906;2023-07-20T08:11:09;101810.19;;;18.59;100.00
70370;BME280;57790;51.356;-2.906;2023-07-20T08:14:09;101815.16;;;18.62;100.00
70370;BME280;57790;51.356;-2.906;2023-07-20T08:17:09;101815.66;;;18.66;100.00
70370;BME280;57790;51.356;-2.906;2023-07-20T08:20:10;101805.38;;;18.69;100.00
70370;BME280;57790;51.356;-2.906;2023-07-20T08:23:13;101808.31;;;18.75;100.00
70370;BME280;57790;51.356;-2.906;2023-07-20T08:26:14;101806.09;;;18.78;100.00
70370;BME280;57790;51.356;-2.906;2023-07-20T08:29:14;101814.22;;;18.85;100.00
70370;BME280;57790;51.356;-2.906;2023-07-20T08:32:14;101812.00;;;18.88;100.00
70370;BME280;57790;51.356;-2.906;2023-07-20T08:35:15;101812.44;;;18.92;100.00
70370;BME280;57790;51.356;-2.906;2023-07-20T08:38:15;101801.75;;;18.98;100.00
70370;BME280;57790;51.356;-2.906;2023-07-20T08:41:16;101809.06;;;19.05;100.00
70370;BME280;57790;51.356;-2.906;2023-07-20T08:44:17;101796.72;;;19.10;100.00
70370;BME280;57790;51.356;-2.906;2023-07-20T08:47:18;101799.66;;;19.15;100.00
70370;BME280;57790;51.356;-2.906;2023-07-20T08:50:21;101801.56;;;19.21;100.00
70370;BME280;57790;51.356;-2.906;2023-07-20T08:53:22;101803.09;;;19.30;100.00
70370;BME280;57790;51.356;-2.906;2023-07-20T08:56:25;101800.63;;;19.36;100.00
70370;BME280;57790;51.356;-2.906;2023-07-20T08:59:26;101795.53;;;19.41;100.00
70370;BME280;57790;51.356;-2.906;2023-07-20T09:02:27;101799.91;;;19.48;100.00
70370;BME280;57790;51.356;-2.906;2023-07-20T09:05:28;101796.28;;;19.56;100.00
70370;BME280;57790;51.356;-2.906;2023-07-20T09:08:28;101798.41;;;19.60;100.00
70370;BME280;57790;51.356;-2.906;2023-07-20T09:11:29;101793.91;;;19.68;100.00
70370;BME280;57790;51.356;-2.906;2023-07-20T09:14:30;101802.44;;;19.78;100.00
70370;BME280;57790;51.356;-2.906;2023-07-20T09:17:31;101793.59;;;19.84;100.00
70370;BME280;57790;51.356;-2.906;2023-07-20T09:20:32;101792.38;;;19.86;100.00
70370;BME280;57790;51.356;-2.906;2023-07-20T09:23:37;101795.09;;;19.93;100.00
70370;BME280;57790;51.356;-2.906;2023-07-20T09:26:42;101791.16;;;19.96;100.00
70370;BME280;57790;51.356;-2.906;2023-07-20T09:29:50;101798.03;;;19.98;100.00
70370;BME280;57790;51.356;-2.906;2023-07-20T09:32:51;101789.34;;;20.03;100.00
70370;BME280;57790;51.356;-2.906;2023-07-20T09:35:51;101794.53;;;20.04;100.00
70370;BME280;57790;51.356;-2.906;2023-07-20T09:38:52;101792.47;;;20.06;100.00
70370;BME280;57790;51.356;-2.906;2023-07-20T09:41:53;101789.00;;;20.12;100.00
70370;BME280;57790;51.356;-2.906;2023-07-20T09:44:53;101789.00;;;20.19;100.00
70370;BME280;57790;51.356;-2.906;2023-07-20T09:48:03;101786.94;;;20.21;100.00
70370;BME280;57790;51.356;-2.906;2023-07-20T09:51:04;101782.44;;;20.28;100.00
70370;BME280;57790;51.356;-2.906;2023-07-20T09:54:06;101787.00;;;20.34;100.00
70370;BME280;57790;51.356;-2.906;2023-07-20T09:57:07;101776.03;;;20.36;100.00
70370;BME280;57790;51.356;-2.906;2023-07-20T10:00:09;101773.75;;;20.39;100.00
70370;BME280;57790;51.356;-2.906;2023-07-20T10:03:18;101772.16;;;20.45;100.00
70370;BME280;57790;51.356;-2.906;2023-07-20T10:06:25;101769.47;;;20.52;100.00
70370;BME280;57790;51.356;-2.906;2023-07-20T10:09:26;101775.72;;;20.59;100.00
70370;BME280;57790;51.356;-2.906;2023-07-20T10:12:27;101774.91;;;20.65;100.00
70370;BME280;57790;51.356;-2.906;2023-07-20T10:15:32;101777.00;;;20.69;100.00
70370;BME280;57790;51.356;-2.906;2023-07-20T10:18:40;101774.53;;;20.74;100.00
70370;BME280;57790;51.356;-2.906;2023-07-20T10:21:47;101771.63;;;20.76;100.00
70370;BME280;57790;51.356;-2.906;2023-07-20T10:24:48;101769.34;;;20.79;100.00
70370;BME280;57790;51.356;-2.906;2023-07-20T10:27:49;101758.16;;;20.83;100.00
70370;BME280;57790;51.356;-2.906;2023-07-20T10:30:50;101763.16;;;20.86;100.00
70370;BME280;57790;51.356;-2.906;2023-07-20T10:33:51;101766.47;;;20.88;100.00
70370;BME280;57790;51.356;-2.906;2023-07-20T10:36:52;101771.22;;;20.92;100.00
70370;BME280;57790;51.356;-2.906;2023-07-20T10:39:55;101761.28;;;20.93;100.00
70370;BME280;57790;51.356;-2.906;2023-07-20T10:43:00;101760.47;;;20.99;100.00
70370;BME280;57790;51.356;-2.906;2023-07-20T10:46:01;101764.19;;;21.04;100.00
70370;BME280;57790;51.356;-2.906;2023-07-20T10:49:03;101756.31;;;21.09;100.00
70370;BME280;57790;51.356;-2.906;2023-07-20T10:52:05;101752.81;;;21.16;100.00
70370;BME280;57790;51.356;-2.906;2023-07-20T10:55:19;101760.06;;;21.22;100.00
70370;BME280;57790;51.356;-2.906;2023-07-20T10:58:22;101751.78;;;21.30;100.00
70370;BME280;57790;51.356;-2.906;2023-07-20T11:01:35;101745.94;;;21.39;100.00
70370;BME280;57790;51.356;-2.906;2023-07-20T11:04:40;101746.59;;;21.42;100.00
70370;BME280;57790;51.356;-2.906;2023-07-20T11:07:41;101738.28;;;21.50;100.00
70370;BME280;57790;51.356;-2.906;2023-07-20T11:10:42;101732.88;;;21.56;100.00
70370;BME280;57790;51.356;-2.906;2023-07-20T11:14:02;101738.66;;;21.66;100.00
70370;BME280;57790;51.356;-2.906;2023-07-20T11:17:30;101730.75;;;21.72;100.00
70370;BME280;57790;51.356;-2.906;2023-07-20T11:20:30;101722.19;;;21.81;100.00
70370;BME280;57790;51.356;-2.906;2023-07-20T11:23:31;101723.03;;;21.88;100.00
70370;BME280;57790;51.356;-2.906;2023-07-20T11:27:01;101720.06;;;22.03;100.00
70370;BME280;57790;51.356;-2.906;2023-07-20T11:30:02;101720.47;;;22.07;100.00
70370;BME280;57790;51.356;-2.906;2023-07-20T11:33:02;101714.03;;;22.14;100.00
70370;BME280;57790;51.356;-2.906;2023-07-20T11:36:03;101710.00;;;22.23;100.00
70370;BME280;57790;51.356;-2.906;2023-07-20T11:39:06;101702.44;;;22.39;100.00
70370;BME280;57790;51.356;-2.906;2023-07-20T11:42:08;101700.75;;;22.44;100.00
70370;BME280;57790;51.356;-2.906;2023-07-20T11:45:09;101699.66;;;22.52;100.00
70370;BME280;57790;51.356;-2.906;2023-07-20T11:48:16;101703.31;;;22.64;100.00
70370;BME280;57790;51.356;-2.906;2023-07-20T11:51:16;101697.03;;;22.70;100.00
70370;BME280;57790;51.356;-2.906;2023-07-20T11:54:17;101699.66;;;22.83;100.00
70370;BME280;57790;51.356;-2.906;2023-07-20T11:57:20;101699.41;;;22.92;100.00
70370;BME280;57790;51.356;-2.906;2023-07-20T12:00:24;101704.97;;;22.97;100.00
70370;BME280;57790;51.356;-2.906;2023-07-20T12:03:25;101696.00;;;23.03;100.00
70370;BME280;57790;51.356;-2.906;2023-07-20T12:06:27;101695.69;;;23.11;100.00
70370;BME280;57790;51.356;-2.906;2023-07-20T12:09:28;101698.13;;;23.19;100.00
70370;BME280;57790;51.356;-2.906;2023-07-20T12:12:28;101703.47;;;23.26;100.00
70370;BME280;57790;51.356;-2.906;2023-07-20T12:15:31;101698.00;;;23.32;100.00
70370;BME280;57790;51.356;-2.906;2023-07-20T12:18:35;101708.38;;;23.35;100.00
70370;BME280;57790;51.356;-2.906;2023-07-20T12:21:38;101702.88;;;23.42;100.00
70370;BME280;57790;51.356;-2.906;2023-07-20T12:24:39;101699.97;;;23.43;100.00
70370;BME280;57790;51.356;-2.906;2023-07-20T12:27:39;101695.53;;;23.49;100.00
70370;BME280;57790;51.356;-2.906;2023-07-20T12:30:42;101691.69;;;23.57;100.00
70370;BME280;57790;51.356;-2.906;2023-07-20T12:33:42;101689.19;;;23.62;100.00
70370;BME280;57790;51.356;-2.906;2023-07-20T12:36:43;101688.13;;;23.63;100.00
70370;BME280;57790;51.356;-2.906;2023-07-20T12:39:43;101677.91;;;23.65;100.00
70370;BME280;57790;51.356;-2.906;2023-07-20T12:42:47;101686.63;;;23.67;100.00
70370;BME280;57790;51.356;-2.906;2023-07-20T12:45:48;101683.91;;;23.67;100.00
70370;BME280;57790;51.356;-2.906;2023-07-20T12:48:48;101673.53;;;23.64;100.00
70370;BME280;57790;51.356;-2.906;2023-07-20T12:51:48;101680.16;;;23.68;100.00
70370;BME280;57790;51.356;-2.906;2023-07-20T12:54:49;101672.63;;;23.70;100.00
70370;BME280;57790;51.356;-2.906;2023-07-20T12:57:49;101667.22;;;23.70;100.00
70370;BME280;57790;51.356;-2.906;2023-07-20T13:00:50;101671.78;;;23.69;100.00
70370;BME280;57790;51.356;-2.906;2023-07-20T13:03:50;101668.03;;;23.70;100.00
70370;BME280;57790;51.356;-2.906;2023-07-20T13:06:51;101665.56;;;23.69;100.00
70370;BME280;57790;51.356;-2.906;2023-07-20T13:09:51;101665.19;;;23.65;100.00
70370;BME280;57790;51.356;-2.906;2023-07-20T13:12:52;101664.97;;;23.67;100.00
70370;BME280;57790;51.356;-2.906;2023-07-20T13:15:52;101666.84;;;23.66;100.00
70370;BME280;57790;51.356;-2.906;2023-07-20T13:18:54;101662.84;;;23.69;100.00
70370;BME280;57790;51.356;-2.906;2023-07-20T13:21:54;101666.63;;;23.68;100.00
70370;BME280;57790;51.356;-2.906;2023-07-20T13:24:55;101664.91;;;23.73;100.00
70370;BME280;57790;51.356;-2.906;2023-07-20T13:27:55;101656.31;;;23.77;100.00
70370;BME280;57790;51.356;-2.906;2023-07-20T13:30:56;101661.88;;;23.82;100.00
70370;BME280;57790;51.356;-2.906;2023-07-20T13:33:56;101657.44;;;23.87;100.00
70370;BME280;57790;51.356;-2.906;2023-07-20T13:36:57;101655.69;;;23.93;100.00
70370;BME280;57790;51.356;-2.906;2023-07-20T13:39:57;101651.22;;;23.98;100.00
70370;BME280;57790;51.356;-2.906;2023-07-20T13:42:58;101648.91;;;24.02;100.00
70370;BME280;57790;51.356;-2.906;2023-07-20T13:45:58;101641.97;;;24.06;100.00
70370;BME280;57790;51.356;-2.906;2023-07-20T13:48:58;101645.16;;;24.15;100.00
70370;BME280;57790;51.356;-2.906;2023-07-20T13:51:59;101644.84;;;24.23;100.00
70370;BME280;57790;51.356;-2.906;2023-07-20T13:54:59;101640.59;;;24.27;100.00
70370;BME280;57790;51.356;-2.906;2023-07-20T13:58:00;101641.84;;;24.31;100.00
70370;BME280;57790;51.356;-2.906;2023-07-20T14:01:00;101642.56;;;24.38;100.00
70370;BME280;57790;51.356;-2.906;2023-07-20T14:04:01;101639.13;;;24.43;100.00
70370;BME280;57790;51.356;-2.906;2023-07-20T14:07:02;101635.53;;;24.49;100.00
70370;BME280;57790;51.356;-2.906;2023-07-20T14:10:03;101637.53;;;24.53;100.00
70370;BME280;57790;51.356;-2.906;2023-07-20T14:13:03;101634.09;;;24.58;100.00
70370;BME280;57790;51.356;-2.906;2023-07-20T14:16:04;101632.59;;;24.62;100.00
70370;BME280;57790;51.356;-2.906;2023-07-20T14:19:04;101644.16;;;24.69;100.00
70370;BME280;57790;51.356;-2.906;2023-07-20T14:22:05;101638.88;;;24.74;100.00
70370;BME280;57790;51.356;-2.906;2023-07-20T14:25:06;101642.03;;;24.71;100.00
70370;BME280;57790;51.356;-2.906;2023-07-20T14:28:07;101630.09;;;24.72;100.00
70370;BME280;57790;51.356;-2.906;2023-07-20T14:31:08;101636.97;;;24.75;100.00
70370;BME280;57790;51.356;-2.906;2023-07-20T14:34:09;101637.44;;;24.72;100.00
70370;BME280;57790;51.356;-2.906;2023-07-20T14:37:09;101636.16;;;24.74;100.00
70370;BME280;57790;51.356;-2.906;2023-07-20T14:40:10;101630.94;;;24.73;100.00
70370;BME280;57790;51.356;-2.906;2023-07-20T14:43:11;101631.75;;;24.73;100.00
70370;BME280;57790;51.356;-2.906;2023-07-20T14:46:11;101629.28;;;24.72;100.00
70370;BME280;57790;51.356;-2.906;2023-07-20T14:49:12;101630.81;;;24.68;100.00
70370;BME280;57790;51.356;-2.906;2023-07-20T14:52:12;101630.72;;;24.62;100.00
70370;BME280;57790;51.356;-2.906;2023-07-20T14:55:13;101629.66;;;24.63;100.00
70370;BME280;57790;51.356;-2.906;2023-07-20T14:58:13;101628.47;;;24.59;100.00
70370;BME280;57790;51.356;-2.906;2023-07-20T15:01:14;101621.50;;;24.52;100.00
70370;BME280;57790;51.356;-2.906;2023-07-20T15:04:14;101627.84;;;24.46;100.00
70370;BME280;57790;51.356;-2.906;2023-07-20T15:07:19;101616.63;;;24.42;100.00
70370;BME280;57790;51.356;-2.906;2023-07-20T15:10:20;101622.75;;;24.38;100.00
70370;BME280;57790;51.356;-2.906;2023-07-20T15:13:20;101617.22;;;24.32;100.00
70370;BME280;57790;51.356;-2.906;2023-07-20T15:16:20;101616.22;;;24.27;100.00
70370;BME280;57790;51.356;-2.906;2023-07-20T15:19:21;101623.06;;;24.29;100.00
70370;BME280;57790;51.356;-2.906;2023-07-20T15:22:22;101624.94;;;24.29;100.00
70370;BME280;57790;51.356;-2.906;2023-07-20T15:25:22;101623.91;;;24.30;100.00
70370;BME280;57790;51.356;-2.906;2023-07-20T15:28:23;101618.47;;;24.30;100.00
70370;BME280;57790;51.356;-2.906;2023-07-20T15:31:24;101622.41;;;24.34;100.00
70370;BME280;57790;51.356;-2.906;2023-07-20T15:34:24;101619.47;;;24.36;100.00